sensor_id;sensor_type;location;lat;lon;timestamp;temperature;humidity
16437;DHT22;8328;52.206;21.006;2023-04-24T00:00:40;13.30;55.50
16437;DHT22;8328;52.206;21.006;2023-04-24T00:03:06;13.30;55.60
16437;DHT22;8328;52.206;21.006;2023-04-24T00:05:33;13.20;57.70
16437;DHT22;8328;52.206;21.006;2023-04-24T00:07:59;13.20;58.50
16437;DHT22;8328;52.206;21.006;2023-04-24T00:10:25;13.20;59.30
16437;DHT22;8328;52.206;21.006;2023-04-24T00:12:51;13.10;60.40
16437;DHT22;8328;52.206;21.006;2023-04-24T00:15:16;13.10;61.40
16437;DHT22;8328;52.206;21.006;2023-04-24T00:17:43;13.10;63.50
16437;DHT22;8328;52.206;21.006;2023-04-24T00:20:09;13.00;65.30
16437;DHT22;8328;52.206;21.006;2023-04-24T00:22:37;13.00;66.20
16437;DHT22;8328;52.206;21.006;2023-04-24T00:25:03;13.00;67.00
16437;DHT22;8328;52.206;21.006;2023-04-24T00:27:30;12.90;66.30
16437;DHT22;8328;52.206;21.006;2023-04-24T00:29:56;12.90;66.10
16437;DHT22;8328;52.206;21.006;2023-04-24T00:32:22;12.90;66.50
16437;DHT22;8328;52.206;21.006;2023-04-24T00:34:47;12.90;66.80
16437;DHT22;8328;52.206;21.006;2023-04-24T00:37:17;12.90;67.20
16437;DHT22;8328;52.206;21.006;2023-04-24T00:42:10;12.80;68.00
16437;DHT22;8328;52.206;21.006;2023-04-24T00:44:36;12.80;68.70
16437;DHT22;8328;52.206;21.006;2023-04-24T00:47:02;12.80;68.80
16437;DHT22;8328;52.206;21.006;2023-04-24T00:49:29;12.80;69.50
16437;DHT22;8328;52.206;21.006;2023-04-24T00:51:56;12.70;71.30
16437;DHT22;8328;52.206;21.006;2023-04-24T00:54:26;12.70;73.80
16437;DHT22;8328;52.206;21.006;2023-04-24T00:56:53;12.60;75.90
16437;DHT22;8328;52.206;21.006;2023-04-24T00:59:19;12.70;77.40
16437;DHT22;8328;52.206;21.006;2023-04-24T01:01:45;12.70;78.30
16437;DHT22;8328;52.206;21.006;2023-04-24T01:04:12;12.70;79.70
16437;DHT22;8328;52.206;21.006;2023-04-24T01:06:39;12.70;80.60
16437;DHT22;8328;52.206;21.006;2023-04-24T01:09:06;12.70;83.60
16437;DHT22;8328;52.206;21.006;2023-04-24T01:11:33;12.80;85.60
16437;DHT22;8328;52.206;21.006;2023-04-24T01:13:59;12.80;85.90
16437;DHT22;8328;52.206;21.006;2023-04-24T01:16:25;12.80;86.20
16437;DHT22;8328;52.206;21.006;2023-04-24T01:18:51;12.80;88.20
16437;DHT22;8328;52.206;21.006;2023-04-24T01:21:18;12.80;90.00
16437;DHT22;8328;52.206;21.006;2023-04-24T01:23:45;12.70;90.20
16437;DHT22;8328;52.206;21.006;2023-04-24T01:26:13;12.70;91.60
16437;DHT22;8328;52.206;21.006;2023-04-24T01:28:39;12.60;93.10
16437;DHT22;8328;52.206;21.006;2023-04-24T01:31:07;12.60;94.50
16437;DHT22;8328;52.206;21.006;2023-04-24T01:33:33;12.50;95.50
16437;DHT22;8328;52.206;21.006;2023-04-24T01:35:59;12.50;96.80
16437;DHT22;8328;52.206;21.006;2023-04-24T01:40:52;12.40;99.90
16437;DHT22;8328;52.206;21.006;2023-04-24T01:43:18;12.40;99.90
16437;DHT22;8328;52.206;21.006;2023-04-24T01:45:44;12.40;99.90
16437;DHT22;8328;52.206;21.006;2023-04-24T01:48:12;12.40;99.90
16437;DHT22;8328;52.206;21.006;2023-04-24T01:55:30;12.30;99.90
16437;DHT22;8328;52.206;21.006;2023-04-24T01:57:56;12.30;99.90
16437;DHT22;8328;52.206;21.006;2023-04-24T02:00:23;12.30;99.90
16437;DHT22;8328;52.206;21.006;2023-04-24T02:02:50;12.30;99.90
16437;DHT22;8328;52.206;21.006;2023-04-24T02:05:16;12.20;99.90
16437;DHT22;8328;52.206;21.006;2023-04-24T02:10:08;12.20;99.90
16437;DHT22;8328;52.206;21.006;2023-04-24T02:12:34;12.20;99.90
16437;DHT22;8328;52.206;21.006;2023-04-24T02:15:00;12.20;99.90
16437;DHT22;8328;52.206;21.006;2023-04-24T02:17:25;12.20;99.90
16437;DHT22;8328;52.206;21.006;2023-04-24T02:19:52;12.20;99.90
16437;DHT22;8328;52.206;21.006;2023-04-24T02:22:17;12.20;99.90
16437;DHT22;8328;52.206;21.006;2023-04-24T02:27:09;12.20;99.90
16437;DHT22;8328;52.206;21.006;2023-04-24T02:29:35;12.10;99.90
16437;DHT22;8328;52.206;21.006;2023-04-24T02:32:01;12.10;99.90
16437;DHT22;8328;52.206;21.006;2023-04-24T02:34:27;12.10;99.90
16437;DHT22;8328;52.206;21.006;2023-04-24T02:36:52;12.10;99.90
16437;DHT22;8328;52.206;21.006;2023-04-24T02:39:19;12.00;99.90
16437;DHT22;8328;52.206;21.006;2023-04-24T02:41:45;12.00;99.90
16437;DHT22;8328;52.206;21.006;2023-04-24T02:44:11;12.00;99.90
16437;DHT22;8328;52.206;21.006;2023-04-24T02:46:37;12.00;99.90
16437;DHT22;8328;52.206;21.006;2023-04-24T02:49:03;11.90;99.90
16437;DHT22;8328;52.206;21.006;2023-04-24T02:51:29;11.90;99.90
16437;DHT22;8328;52.206;21.006;2023-04-24T02:53:55;11.90;99.90
16437;DHT22;8328;52.206;21.006;2023-04-24T02:56:21;11.90;99.90
16437;DHT22;8328;52.206;21.006;2023-04-24T02:58:47;11.90;99.90
16437;DHT22;8328;52.206;21.006;2023-04-24T03:01:12;11.90;99.90
16437;DHT22;8328;52.206;21.006;2023-04-24T03:03:39;11.90;99.90
16437;DHT22;8328;52.206;21.006;2023-04-24T03:06:05;11.90;99.90
16437;DHT22;8328;52.206;21.006;2023-04-24T03:11:00;11.90;99.90
16437;DHT22;8328;52.206;21.006;2023-04-24T03:15:52;11.90;99.90
16437;DHT22;8328;52.206;21.006;2023-04-24T03:18:18;11.90;99.90
16437;DHT22;8328;52.206;21.006;2023-04-24T03:20:45;11.90;99.90
16437;DHT22;8328;52.206;21.006;2023-04-24T03:23:12;11.90;99.90
16437;DHT22;8328;52.206;21.006;2023-04-24T03:25:37;11.90;99.90
16437;DHT22;8328;52.206;21.006;2023-04-24T03:28:05;12.00;99.90
16437;DHT22;8328;52.206;21.006;2023-04-24T03:32:56;12.00;99.90
16437;DHT22;8328;52.206;21.006;2023-04-24T03:35:22;12.10;99.90
16437;DHT22;8328;52.206;21.006;2023-04-24T03:40:14;12.20;99.90
16437;DHT22;8328;52.206;21.006;2023-04-24T03:42:40;12.30;99.90
16437;DHT22;8328;52.206;21.006;2023-04-24T03:45:06;12.40;99.90
16437;DHT22;8328;52.206;21.006;2023-04-24T03:47:32;12.50;99.90
16437;DHT22;8328;52.206;21.006;2023-04-24T03:49:58;12.60;99.90
16437;DHT22;8328;52.206;21.006;2023-04-24T03:52:24;12.60;99.90
16437;DHT22;8328;52.206;21.006;2023-04-24T03:54:49;12.60;99.90
16437;DHT22;8328;52.206;21.006;2023-04-24T03:59:42;12.70;99.90
16437;DHT22;8328;52.206;21.006;2023-04-24T04:02:08;12.70;99.90
16437;DHT22;8328;52.206;21.006;2023-04-24T04:07:00;12.80;99.90
16437;DHT22;8328;52.206;21.006;2023-04-24T04:09:30;12.80;99.90
16437;DHT22;8328;52.206;21.006;2023-04-24T04:14:22;13.00;99.60
16437;DHT22;8328;52.206;21.006;2023-04-24T04:16:49;13.00;99.40
16437;DHT22;8328;52.206;21.006;2023-04-24T04:19:14;13.10;99.20
16437;DHT22;8328;52.206;21.006;2023-04-24T04:24:06;13.10;99.00
16437;DHT22;8328;52.206;21.006;2023-04-24T04:26:33;13.10;99.10
16437;DHT22;8328;52.206;21.006;2023-04-24T04:29:00;13.20;99.00
16437;DHT22;8328;52.206;21.006;2023-04-24T04:31:26;13.10;99.10
16437;DHT22;8328;52.206;21.006;2023-04-24T04:33:52;13.20;98.60
16437;DHT22;8328;52.206;21.006;2023-04-24T04:36:18;13.30;98.40
16437;DHT22;8328;52.206;21.006;2023-04-24T04:38:44;13.30;98.50
16437;DHT22;8328;52.206;21.006;2023-04-24T04:43:36;13.60;97.40
16437;DHT22;8328;52.206;21.006;2023-04-24T04:46:03;13.50;97.70
16437;DHT22;8328;52.206;21.006;2023-04-24T04:48:29;13.90;97.10
16437;DHT22;8328;52.206;21.006;2023-04-24T04:50:57;14.00;97.40
16437;DHT22;8328;52.206;21.006;2023-04-24T04:53:23;14.30;96.00
16437;DHT22;8328;52.206;21.006;2023-04-24T04:55:49;14.30;96.20
16437;DHT22;8328;52.206;21.006;2023-04-24T04:58:15;14.50;95.20
16437;DHT22;8328;52.206;21.006;2023-04-24T05:03:07;14.90;93.20
16437;DHT22;8328;52.206;21.006;2023-04-24T05:05:33;15.20;92.70
16437;DHT22;8328;52.206;21.006;2023-04-24T05:07:59;15.40;92.00
16437;DHT22;8328;52.206;21.006;2023-04-24T05:12:51;16.20;89.10
16437;DHT22;8328;52.206;21.006;2023-04-24T05:17:43;17.10;81.70
16437;DHT22;8328;52.206;21.006;2023-04-24T05:20:08;17.10;82.50
16437;DHT22;8328;52.206;21.006;2023-04-24T05:22:35;17.40;80.10
16437;DHT22;8328;52.206;21.006;2023-04-24T05:25:01;17.70;78.40
16437;DHT22;8328;52.206;21.006;2023-04-24T05:27:28;18.00;75.20
16437;DHT22;8328;52.206;21.006;2023-04-24T05:32:19;18.50;72.70
16437;DHT22;8328;52.206;21.006;2023-04-24T05:34:45;18.80;68.70
16437;DHT22;8328;52.206;21.006;2023-04-24T05:37:11;18.80;69.10
16437;DHT22;8328;52.206;21.006;2023-04-24T05:39:37;19.00;68.20
16437;DHT22;8328;52.206;21.006;2023-04-24T05:42:03;19.30;68.90
16437;DHT22;8328;52.206;21.006;2023-04-24T05:44:30;19.50;65.70
16437;DHT22;8328;52.206;21.006;2023-04-24T05:46:56;19.70;64.40
16437;DHT22;8328;52.206;21.006;2023-04-24T05:49:22;19.90;62.00
16437;DHT22;8328;52.206;21.006;2023-04-24T05:51:48;20.00;60.90
16437;DHT22;8328;52.206;21.006;2023-04-24T05:56:40;20.00;58.20
16437;DHT22;8328;52.206;21.006;2023-04-24T05:59:06;19.90;58.70
16437;DHT22;8328;52.206;21.006;2023-04-24T06:01:33;20.20;58.90
16437;DHT22;8328;52.206;21.006;2023-04-24T06:03:59;20.20;60.30
16437;DHT22;8328;52.206;21.006;2023-04-24T06:06:25;20.40;63.60
16437;DHT22;8328;52.206;21.006;2023-04-24T06:08:51;20.30;60.10
16437;DHT22;8328;52.206;21.006;2023-04-24T06:11:17;20.20;58.60
16437;DHT22;8328;52.206;21.006;2023-04-24T06:13:43;20.10;59.20
16437;DHT22;8328;52.206;21.006;2023-04-24T06:16:08;20.00;58.50
16437;DHT22;8328;52.206;21.006;2023-04-24T06:18:34;20.10;59.60
16437;DHT22;8328;52.206;21.006;2023-04-24T06:21:00;20.30;59.10
16437;DHT22;8328;52.206;21.006;2023-04-24T06:23:26;20.30;58.20
16437;DHT22;8328;52.206;21.006;2023-04-24T06:25:52;20.30;57.90
16437;DHT22;8328;52.206;21.006;2023-04-24T06:28:18;20.40;58.00
16437;DHT22;8328;52.206;21.006;2023-04-24T06:30:47;20.30;56.80
16437;DHT22;8328;52.206;21.006;2023-04-24T06:33:18;20.40;56.50
16437;DHT22;8328;52.206;21.006;2023-04-24T06:35:50;20.30;56.10
16437;DHT22;8328;52.206;21.006;2023-04-24T06:38:15;20.10;56.30
16437;DHT22;8328;52.206;21.006;2023-04-24T06:43:07;20.10;56.30
16437;DHT22;8328;52.206;21.006;2023-04-24T06:45:33;20.00;57.50
16437;DHT22;8328;52.206;21.006;2023-04-24T06:47:59;20.00;56.70
16437;DHT22;8328;52.206;21.006;2023-04-24T06:50:26;20.00;57.00
16437;DHT22;8328;52.206;21.006;2023-04-24T06:52:52;20.00;57.10
16437;DHT22;8328;52.206;21.006;2023-04-24T06:55:18;20.00;56.70
16437;DHT22;8328;52.206;21.006;2023-04-24T07:00:10;20.00;56.70
16437;DHT22;8328;52.206;21.006;2023-04-24T07:02:36;20.00;57.50
16437;DHT22;8328;52.206;21.006;2023-04-24T07:05:04;20.10;57.70
16437;DHT22;8328;52.206;21.006;2023-04-24T07:07:29;20.10;57.70
16437;DHT22;8328;52.206;21.006;2023-04-24T07:09:56;19.80;57.90
16437;DHT22;8328;52.206;21.006;2023-04-24T07:12:23;19.30;58.80
16437;DHT22;8328;52.206;21.006;2023-04-24T07:14:50;19.30;59.30
16437;DHT22;8328;52.206;21.006;2023-04-24T07:17:15;19.40;60.50
16437;DHT22;8328;52.206;21.006;2023-04-24T07:19:41;19.60;60.30
16437;DHT22;8328;52.206;21.006;2023-04-24T07:22:07;20.30;58.70
16437;DHT22;8328;52.206;21.006;2023-04-24T07:24:33;20.30;59.20
16437;DHT22;8328;52.206;21.006;2023-04-24T07:26:59;20.80;58.40
16437;DHT22;8328;52.206;21.006;2023-04-24T07:29:26;21.30;57.30
16437;DHT22;8328;52.206;21.006;2023-04-24T07:31:52;22.20;55.80
16437;DHT22;8328;52.206;21.006;2023-04-24T07:36:46;22.60;53.40
16437;DHT22;8328;52.206;21.006;2023-04-24T07:39:11;23.20;51.70
16437;DHT22;8328;52.206;21.006;2023-04-24T07:41:37;23.20;52.20
16437;DHT22;8328;52.206;21.006;2023-04-24T07:44:03;23.20;51.70
16437;DHT22;8328;52.206;21.006;2023-04-24T07:46:30;23.50;50.60
16437;DHT22;8328;52.206;21.006;2023-04-24T07:48:55;23.60;49.50
16437;DHT22;8328;52.206;21.006;2023-04-24T07:51:22;23.80;48.60
16437;DHT22;8328;52.206;21.006;2023-04-24T07:53:48;23.50;47.80
16437;DHT22;8328;52.206;21.006;2023-04-24T07:56:14;23.40;47.80
16437;DHT22;8328;52.206;21.006;2023-04-24T07:58:40;23.10;47.70
16437;DHT22;8328;52.206;21.006;2023-04-24T08:01:06;22.70;48.00
16437;DHT22;8328;52.206;21.006;2023-04-24T08:03:32;22.40;48.50
16437;DHT22;8328;52.206;21.006;2023-04-24T08:05:58;22.10;49.30
16437;DHT22;8328;52.206;21.006;2023-04-24T08:08:25;22.00;50.20
16437;DHT22;8328;52.206;21.006;2023-04-24T08:10:51;21.90;50.70
16437;DHT22;8328;52.206;21.006;2023-04-24T08:13:16;21.80;51.10
16437;DHT22;8328;52.206;21.006;2023-04-24T08:15:42;21.80;51.20
16437;DHT22;8328;52.206;21.006;2023-04-24T08:20:35;22.30;50.30
16437;DHT22;8328;52.206;21.006;2023-04-24T08:23:02;22.20;51.00
16437;DHT22;8328;52.206;21.006;2023-04-24T08:25:27;22.40;51.00
16437;DHT22;8328;52.206;21.006;2023-04-24T08:27:53;22.60;50.30
16437;DHT22;8328;52.206;21.006;2023-04-24T08:30:20;23.00;50.00
16437;DHT22;8328;52.206;21.006;2023-04-24T08:32:46;23.30;49.90
16437;DHT22;8328;52.206;21.006;2023-04-24T08:35:11;23.60;49.10
16437;DHT22;8328;52.206;21.006;2023-04-24T08:37:38;24.20;46.20
16437;DHT22;8328;52.206;21.006;2023-04-24T08:40:10;24.20;46.70
16437;DHT22;8328;52.206;21.006;2023-04-24T08:42:39;24.50;44.90
16437;DHT22;8328;52.206;21.006;2023-04-24T08:45:09;24.40;45.40
16437;DHT22;8328;52.206;21.006;2023-04-24T08:50:03;24.40;46.30
16437;DHT22;8328;52.206;21.006;2023-04-24T08:52:33;24.40;45.20
16437;DHT22;8328;52.206;21.006;2023-04-24T08:55:02;24.40;45.80
16437;DHT22;8328;52.206;21.006;2023-04-24T08:57:28;24.50;46.00
16437;DHT22;8328;52.206;21.006;2023-04-24T08:59:55;24.80;45.80
16437;DHT22;8328;52.206;21.006;2023-04-24T09:04:48;25.10;43.90
16437;DHT22;8328;52.206;21.006;2023-04-24T09:07:16;25.30;44.90
16437;DHT22;8328;52.206;21.006;2023-04-24T09:09:43;25.40;43.40
16437;DHT22;8328;52.206;21.006;2023-04-24T09:12:09;25.40;43.10
16437;DHT22;8328;52.206;21.006;2023-04-24T09:17:06;22.00;40.70
16437;DHT22;8328;52.206;21.006;2023-04-24T09:19:31;25.10;43.50
16437;DHT22;8328;52.206;21.006;2023-04-24T09:21:57;25.10;43.60
16437;DHT22;8328;52.206;21.006;2023-04-24T09:24:23;25.10;43.50
16437;DHT22;8328;52.206;21.006;2023-04-24T09:26:58;25.10;43.10
16437;DHT22;8328;52.206;21.006;2023-04-24T09:29:27;25.40;43.00
16437;DHT22;8328;52.206;21.006;2023-04-24T09:31:53;26.10;40.90
16437;DHT22;8328;52.206;21.006;2023-04-24T09:34:23;26.90;40.00
16437;DHT22;8328;52.206;21.006;2023-04-24T09:36:49;27.60;37.70
16437;DHT22;8328;52.206;21.006;2023-04-24T09:39:16;28.00;36.80
16437;DHT22;8328;52.206;21.006;2023-04-24T09:44:21;27.70;32.70
16437;DHT22;8328;52.206;21.006;2023-04-24T09:47:09;27.50;33.10
16437;DHT22;8328;52.206;21.006;2023-04-24T09:52:09;27.30;32.90
16437;DHT22;8328;52.206;21.006;2023-04-24T09:54:35;27.10;31.90
16437;DHT22;8328;52.206;21.006;2023-04-24T10:01:57;26.30;30.50
16437;DHT22;8328;52.206;21.006;2023-04-24T10:04:26;25.70;31.30
16437;DHT22;8328;52.206;21.006;2023-04-24T10:06:56;25.60;31.70
16437;DHT22;8328;52.206;21.006;2023-04-24T10:09:26;25.50;32.80
16437;DHT22;8328;52.206;21.006;2023-04-24T10:11:53;25.50;33.40
16437;DHT22;8328;52.206;21.006;2023-04-24T10:14:23;25.70;33.00
16437;DHT22;8328;52.206;21.006;2023-04-24T10:16:50;25.30;32.90
16437;DHT22;8328;52.206;21.006;2023-04-24T10:19:18;24.90;33.70
16437;DHT22;8328;52.206;21.006;2023-04-24T10:21:44;24.80;35.10
16437;DHT22;8328;52.206;21.006;2023-04-24T10:24:18;25.20;33.70
16437;DHT22;8328;52.206;21.006;2023-04-24T10:26:46;25.20;34.30
16437;DHT22;8328;52.206;21.006;2023-04-24T10:29:18;25.50;34.70
16437;DHT22;8328;52.206;21.006;2023-04-24T10:31:44;25.60;33.90
16437;DHT22;8328;52.206;21.006;2023-04-24T10:34:15;25.90;34.00
16437;DHT22;8328;52.206;21.006;2023-04-24T10:36:45;26.40;31.90
16437;DHT22;8328;52.206;21.006;2023-04-24T10:39:13;26.40;32.40
16437;DHT22;8328;52.206;21.006;2023-04-24T10:41:41;26.60;31.60
16437;DHT22;8328;52.206;21.006;2023-04-24T10:44:10;26.90;30.80
16437;DHT22;8328;52.206;21.006;2023-04-24T10:46:37;27.20;30.30
16437;DHT22;8328;52.206;21.006;2023-04-24T10:49:07;27.50;28.70
16437;DHT22;8328;52.206;21.006;2023-04-24T10:51:51;27.50;29.20
16437;DHT22;8328;52.206;21.006;2023-04-24T10:54:35;27.60;28.10
16437;DHT22;8328;52.206;21.006;2023-04-24T10:57:28;28.00;27.10
16437;DHT22;8328;52.206;21.006;2023-04-24T11:00:16;28.30;25.40
16437;DHT22;8328;52.206;21.006;2023-04-24T11:02:46;28.60;24.80
16437;DHT22;8328;52.206;21.006;2023-04-24T11:05:18;29.60;23.60
16437;DHT22;8328;52.206;21.006;2023-04-24T11:08:10;30.00;23.30
16437;DHT22;8328;52.206;21.006;2023-04-24T11:16:35;31.00;21.40
16437;DHT22;8328;52.206;21.006;2023-04-24T11:19:02;31.20;20.90
16437;DHT22;8328;52.206;21.006;2023-04-24T11:21:55;31.40;19.70
16437;DHT22;8328;52.206;21.006;2023-04-24T11:27:15;32.00;18.70
16437;DHT22;8328;52.206;21.006;2023-04-24T11:35:03;32.60;15.70
16437;DHT22;8328;52.206;21.006;2023-04-24T11:37:38;33.00;14.50
16437;DHT22;8328;52.206;21.006;2023-04-24T11:40:06;33.20;13.90
16437;DHT22;8328;52.206;21.006;2023-04-24T11:42:40;32.90;13.80
16437;DHT22;8328;52.206;21.006;2023-04-24T11:45:17;33.10;13.40
16437;DHT22;8328;52.206;21.006;2023-04-24T11:47:44;33.30;13.40
16437;DHT22;8328;52.206;21.006;2023-04-24T11:50:18;33.40;13.10
16437;DHT22;8328;52.206;21.006;2023-04-24T11:52:47;33.50;12.50
16437;DHT22;8328;52.206;21.006;2023-04-24T11:57:47;33.60;12.30
16437;DHT22;8328;52.206;21.006;2023-04-24T12:00:22;33.50;12.60
16437;DHT22;8328;52.206;21.006;2023-04-24T12:02:48;32.50;12.90
16437;DHT22;8328;52.206;21.006;2023-04-24T12:05:25;32.90;13.20
16437;DHT22;8328;52.206;21.006;2023-04-24T12:07:54;33.60;12.70
16437;DHT22;8328;52.206;21.006;2023-04-24T12:10:25;34.10;12.20
16437;DHT22;8328;52.206;21.006;2023-04-24T12:12:52;34.20;11.60
16437;DHT22;8328;52.206;21.006;2023-04-24T12:15:19;34.30;10.80
16437;DHT22;8328;52.206;21.006;2023-04-24T12:17:46;34.30;11.20
16437;DHT22;8328;52.206;21.006;2023-04-24T12:20:12;32.40;11.30
16437;DHT22;8328;52.206;21.006;2023-04-24T12:25:13;32.90;11.70
16437;DHT22;8328;52.206;21.006;2023-04-24T12:27:40;33.60;11.70
16437;DHT22;8328;52.206;21.006;2023-04-24T12:30:13;34.10;11.50
16437;DHT22;8328;52.206;21.006;2023-04-24T12:32:47;34.40;11.30
16437;DHT22;8328;52.206;21.006;2023-04-24T12:35:19;34.80;10.20
16437;DHT22;8328;52.206;21.006;2023-04-24T12:37:46;34.80;10.60
16437;DHT22;8328;52.206;21.006;2023-04-24T12:40:13;35.60;10.10
16437;DHT22;8328;52.206;21.006;2023-04-24T12:45:09;36.00;9.30
16437;DHT22;8328;52.206;21.006;2023-04-24T12:47:37;35.60;9.30
16437;DHT22;8328;52.206;21.006;2023-04-24T12:50:04;36.50;9.60
16437;DHT22;8328;52.206;21.006;2023-04-24T12:54:59;37.30;8.70
16437;DHT22;8328;52.206;21.006;2023-04-24T12:57:26;38.00;9.00
16437;DHT22;8328;52.206;21.006;2023-04-24T12:59:59;38.60;8.50
16437;DHT22;8328;52.206;21.006;2023-04-24T13:02:27;36.50;8.50
16437;DHT22;8328;52.206;21.006;2023-04-24T13:04:53;36.50;9.70
16437;DHT22;8328;52.206;21.006;2023-04-24T13:07:19;34.70;8.50
16437;DHT22;8328;52.206;21.006;2023-04-24T13:09:47;33.30;11.20
16437;DHT22;8328;52.206;21.006;2023-04-24T13:14:39;35.80;9.90
16437;DHT22;8328;52.206;21.006;2023-04-24T13:17:04;37.30;9.30
16437;DHT22;8328;52.206;21.006;2023-04-24T13:19:44;38.50;8.00
16437;DHT22;8328;52.206;21.006;2023-04-24T13:22:11;39.20;6.70
16437;DHT22;8328;52.206;21.006;2023-04-24T13:24:38;39.30;5.90
16437;DHT22;8328;52.206;21.006;2023-04-24T13:27:06;39.90;5.50
16437;DHT22;8328;52.206;21.006;2023-04-24T13:29:32;40.20;4.40
16437;DHT22;8328;52.206;21.006;2023-04-24T13:31:58;40.20;4.50
16437;DHT22;8328;52.206;21.006;2023-04-24T13:34:24;40.10;4.80
16437;DHT22;8328;52.206;21.006;2023-04-24T13:36:55;40.70;4.40
16437;DHT22;8328;52.206;21.006;2023-04-24T13:39:22;41.00;3.50
16437;DHT22;8328;52.206;21.006;2023-04-24T13:41:48;41.30;3.20
16437;DHT22;8328;52.206;21.006;2023-04-24T13:44:15;41.00;2.80
16437;DHT22;8328;52.206;21.006;2023-04-24T13:46:42;38.90;2.80
16437;DHT22;8328;52.206;21.006;2023-04-24T13:49:10;34.70;5.50
16437;DHT22;8328;52.206;21.006;2023-04-24T13:56:28;29.80;12.30
16437;DHT22;8328;52.206;21.006;2023-04-24T14:06:17;29.20;11.70
16437;DHT22;8328;52.206;21.006;2023-04-24T14:08:43;29.60;12.20
16437;DHT22;8328;52.206;21.006;2023-04-24T14:11:09;30.40;11.10
16437;DHT22;8328;52.206;21.006;2023-04-24T14:13:36;30.00;10.20
16437;DHT22;8328;52.206;21.006;2023-04-24T14:16:04;28.80;11.10
16437;DHT22;8328;52.206;21.006;2023-04-24T14:18:30;28.00;12.40
16437;DHT22;8328;52.206;21.006;2023-04-24T14:20:55;26.90;13.30
16437;DHT22;8328;52.206;21.006;2023-04-24T14:23:21;26.80;13.80
16437;DHT22;8328;52.206;21.006;2023-04-24T14:25:47;26.50;13.30
16437;DHT22;8328;52.206;21.006;2023-04-24T14:30:42;26.30;13.60
16437;DHT22;8328;52.206;21.006;2023-04-24T14:33:08;26.30;13.60
16437;DHT22;8328;52.206;21.006;2023-04-24T14:35:34;26.30;13.50
16437;DHT22;8328;52.206;21.006;2023-04-24T14:38:00;26.10;13.90
16437;DHT22;8328;52.206;21.006;2023-04-24T14:40:26;26.20;13.70
16437;DHT22;8328;52.206;21.006;2023-04-24T14:42:52;26.20;14.00
16437;DHT22;8328;52.206;21.006;2023-04-24T14:45:18;26.20;14.30
16437;DHT22;8328;52.206;21.006;2023-04-24T14:47:44;26.20;13.90
16437;DHT22;8328;52.206;21.006;2023-04-24T14:50:10;26.00;13.70
16437;DHT22;8328;52.206;21.006;2023-04-24T14:55:05;25.50;13.50
16437;DHT22;8328;52.206;21.006;2023-04-24T15:02:24;25.10;13.50
16437;DHT22;8328;52.206;21.006;2023-04-24T15:04:50;25.10;14.00
16437;DHT22;8328;52.206;21.006;2023-04-24T15:09:42;25.10;14.00
16437;DHT22;8328;52.206;21.006;2023-04-24T15:12:08;25.10;14.40
16437;DHT22;8328;52.206;21.006;2023-04-24T15:14:35;25.20;15.00
16437;DHT22;8328;52.206;21.006;2023-04-24T15:17:01;25.40;13.70
16437;DHT22;8328;52.206;21.006;2023-04-24T15:19:26;25.40;13.90
16437;DHT22;8328;52.206;21.006;2023-04-24T15:21:52;25.50;14.20
16437;DHT22;8328;52.206;21.006;2023-04-24T15:24:18;25.60;13.60
16437;DHT22;8328;52.206;21.006;2023-04-24T15:26:44;25.60;14.00
16437;DHT22;8328;52.206;21.006;2023-04-24T15:29:09;25.50;13.70
16437;DHT22;8328;52.206;21.006;2023-04-24T15:31:35;25.50;14.00
16437;DHT22;8328;52.206;21.006;2023-04-24T15:34:07;25.40;13.80
16437;DHT22;8328;52.206;21.006;2023-04-24T15:39:01;24.80;15.90
16437;DHT22;8328;52.206;21.006;2023-04-24T15:46:20;24.00;16.60
16437;DHT22;8328;52.206;21.006;2023-04-24T15:48:45;23.60;17.50
16437;DHT22;8328;52.206;21.006;2023-04-24T15:51:12;23.20;18.10
16437;DHT22;8328;52.206;21.006;2023-04-24T15:53:38;23.00;17.90
16437;DHT22;8328;52.206;21.006;2023-04-24T15:56:04;22.80;17.40
16437;DHT22;8328;52.206;21.006;2023-04-24T15:58:29;22.60;17.00
16437;DHT22;8328;52.206;21.006;2023-04-24T16:00:55;22.40;17.40
16437;DHT22;8328;52.206;21.006;2023-04-24T16:03:22;22.30;18.50
16437;DHT22;8328;52.206;21.006;2023-04-24T16:05:48;22.10;19.00
16437;DHT22;8328;52.206;21.006;2023-04-24T16:08:14;22.00;19.40
16437;DHT22;8328;52.206;21.006;2023-04-24T16:10:41;21.90;19.90
16437;DHT22;8328;52.206;21.006;2023-04-24T16:13:07;21.60;20.20
16437;DHT22;8328;52.206;21.006;2023-04-24T16:15:33;21.60;20.60
16437;DHT22;8328;52.206;21.006;2023-04-24T16:18:00;21.60;20.50
16437;DHT22;8328;52.206;21.006;2023-04-24T16:20:26;21.40;20.90
16437;DHT22;8328;52.206;21.006;2023-04-24T16:22:52;21.20;21.20
16437;DHT22;8328;52.206;21.006;2023-04-24T16:25:18;21.20;21.70
16437;DHT22;8328;52.206;21.006;2023-04-24T16:27:44;21.10;22.40
16437;DHT22;8328;52.206;21.006;2023-04-24T16:30:11;21.10;22.90
16437;DHT22;8328;52.206;21.006;2023-04-24T16:32:37;20.90;22.50
16437;DHT22;8328;52.206;21.006;2023-04-24T16:37:29;20.80;22.50
16437;DHT22;8328;52.206;21.006;2023-04-24T16:39:55;20.80;23.50
16437;DHT22;8328;52.206;21.006;2023-04-24T16:42:21;20.70;23.80
16437;DHT22;8328;52.206;21.006;2023-04-24T16:44:47;20.60;24.00
16437;DHT22;8328;52.206;21.006;2023-04-24T16:47:13;21.00;24.40
16437;DHT22;8328;52.206;21.006;2023-04-24T16:49:40;20.40;24.70
16437;DHT22;8328;52.206;21.006;2023-04-24T16:52:06;20.30;24.10
16437;DHT22;8328;52.206;21.006;2023-04-24T16:54:32;20.20;24.30
16437;DHT22;8328;52.206;21.006;2023-04-24T16:57:00;20.20;24.20
16437;DHT22;8328;52.206;21.006;2023-04-24T16:59:26;20.10;24.30
16437;DHT22;8328;52.206;21.006;2023-04-24T17:04:20;19.90;24.00
16437;DHT22;8328;52.206;21.006;2023-04-24T17:06:46;19.80;24.40
16437;DHT22;8328;52.206;21.006;2023-04-24T17:09:13;19.50;25.30
16437;DHT22;8328;52.206;21.006;2023-04-24T17:11:40;19.50;25.80
16437;DHT22;8328;52.206;21.006;2023-04-24T17:14:07;19.50;26.10
16437;DHT22;8328;52.206;21.006;2023-04-24T17:18:59;19.00;26.10
16437;DHT22;8328;52.206;21.006;2023-04-24T17:21:25;19.00;26.10
16437;DHT22;8328;52.206;21.006;2023-04-24T17:23:52;18.90;27.30
16437;DHT22;8328;52.206;21.006;2023-04-24T17:26:18;18.70;27.20
16437;DHT22;8328;52.206;21.006;2023-04-24T17:33:37;18.40;28.40
16437;DHT22;8328;52.206;21.006;2023-04-24T17:36:03;18.20;29.10
16437;DHT22;8328;52.206;21.006;2023-04-24T17:38:29;18.00;30.00
16437;DHT22;8328;52.206;21.006;2023-04-24T17:43:23;17.90;30.50
16437;DHT22;8328;52.206;21.006;2023-04-24T17:45:50;17.80;32.40
16437;DHT22;8328;52.206;21.006;2023-04-24T17:48:20;17.70;33.60
16437;DHT22;8328;52.206;21.006;2023-04-24T17:50:47;17.60;33.90
16437;DHT22;8328;52.206;21.006;2023-04-24T17:53:14;15.20;32.20
16437;DHT22;8328;52.206;21.006;2023-04-24T17:55:41;17.40;33.90
16437;DHT22;8328;52.206;21.006;2023-04-24T17:58:08;17.30;34.40
16437;DHT22;8328;52.206;21.006;2023-04-24T18:00:34;17.30;34.80